createdAt,value
2022-09-28T00:00:05.300Z,700.52
2022-09-28T00:00:15.300Z,700.57
2022-09-28T00:00:25.303Z,700.72
2022-09-28T00:00:35.299Z,700.65
2022-09-28T00:00:45.299Z,700.67
2022-09-28T00:00:55.303Z,700.75
2022-09-28T00:01:05.302Z,700.81
2022-09-28T00:01:15.306Z,700.84
2022-09-28T00:01:25.454Z,700.77
2022-09-28T00:01:35.364Z,700.86
2022-09-28T00:01:45.423Z,700.96
2022-09-28T00:01:55.434Z,700.93
2022-09-28T00:02:05.440Z,700.87
2022-09-28T00:02:15.398Z,700.95
2022-09-28T00:02:25.414Z,700.93
2022-09-28T00:02:35.442Z,700.94
2022-09-28T00:02:45.406Z,700.87
2022-09-28T00:02:55.328Z,700.82
2022-09-28T00:03:05.413Z,700.86
2022-09-28T00:03:15.296Z,700.93
2022-09-28T00:03:25.312Z,700.89
2022-09-28T00:03:35.312Z,700.88
2022-09-28T00:03:45.312Z,700.86
2022-09-28T00:03:55.314Z,700.95
2022-09-28T00:04:05.315Z,701.00
2022-09-28T00:04:15.319Z,701.00
2022-09-28T00:04:25.315Z,700.91
2022-09-28T00:04:35.316Z,701.02
2022-09-28T00:04:45.318Z,701.03
2022-09-28T00:04:55.315Z,701.02
2022-09-28T00:05:05.316Z,701.05
2022-09-28T00:05:15.320Z,700.99
2022-09-28T00:05:25.321Z,701.04
2022-09-28T00:05:35.332Z,701.13
2022-09-28T00:05:45.317Z,701.02
2022-09-28T00:05:55.320Z,701.02
2022-09-28T00:06:05.320Z,700.96
2022-09-28T00:06:15.321Z,701.00
2022-09-28T00:06:25.321Z,701.04
2022-09-28T00:06:35.322Z,701.15
2022-09-28T00:06:45.323Z,701.20
2022-09-28T00:06:55.325Z,701.12
2022-09-28T00:07:05.328Z,701.14
2022-09-28T00:07:15.330Z,701.11
2022-09-28T00:07:25.331Z,701.19
2022-09-28T00:07:35.332Z,701.26
2022-09-28T00:07:45.337Z,701.16
2022-09-28T00:07:55.331Z,701.17
2022-09-28T00:08:05.333Z,701.18
2022-09-28T00:08:15.339Z,701.20
2022-09-28T00:08:25.334Z,701.24
2022-09-28T00:08:35.335Z,701.33
2022-09-28T00:08:45.341Z,701.34
2022-09-28T00:08:55.338Z,701.49
2022-09-28T00:09:05.341Z,701.48
2022-09-28T00:09:15.337Z,701.45
2022-09-28T00:09:25.347Z,701.47
2022-09-28T00:09:35.339Z,701.56
2022-09-28T00:09:45.350Z,701.52
2022-09-28T00:09:55.340Z,701.64
2022-09-28T00:10:05.340Z,701.73
2022-09-28T00:10:15.340Z,701.72
2022-09-28T00:10:25.340Z,701.68
2022-09-28T00:10:35.342Z,701.57
2022-09-28T00:10:45.350Z,701.68
2022-09-28T00:10:55.344Z,701.74
2022-09-28T00:11:05.345Z,701.78
2022-09-28T00:11:15.397Z,701.81
2022-09-28T00:11:25.346Z,701.81
2022-09-28T00:11:35.348Z,701.74
2022-09-28T00:11:45.348Z,701.70
2022-09-28T00:11:55.352Z,701.71
2022-09-28T00:12:05.335Z,701.68
2022-09-28T00:12:15.352Z,701.55
2022-09-28T00:12:25.354Z,701.61
2022-09-28T00:12:35.351Z,701.66
2022-09-28T00:12:45.352Z,701.59
2022-09-28T00:12:55.357Z,701.50
2022-09-28T00:13:05.354Z,701.67
2022-09-28T00:13:15.354Z,701.71
2022-09-28T00:13:25.355Z,701.78
2022-09-28T00:13:35.355Z,701.59
2022-09-28T00:13:45.356Z,701.50
2022-09-28T00:13:55.371Z,701.43
2022-09-28T00:14:05.360Z,701.56
2022-09-28T00:14:15.362Z,701.48
2022-09-28T00:14:25.363Z,701.39
2022-09-28T00:14:35.360Z,701.49
2022-09-28T00:14:45.350Z,701.56
2022-09-28T00:14:55.362Z,701.69
2022-09-28T00:15:05.364Z,701.65
2022-09-28T00:15:15.365Z,701.65
2022-09-28T00:15:25.366Z,701.66
2022-09-28T00:15:35.366Z,701.69
2022-09-28T00:15:45.368Z,701.68
2022-09-28T00:15:55.389Z,701.61
2022-09-28T00:16:05.437Z,701.65
2022-09-28T00:16:15.391Z,701.65
2022-09-28T00:16:25.445Z,701.62
2022-09-28T00:16:35.410Z,701.58
2022-09-28T00:16:45.388Z,701.66
2022-09-28T00:16:55.395Z,701.60
2022-09-28T00:17:05.375Z,701.67
2022-09-28T00:17:15.392Z,701.63
2022-09-28T00:17:25.376Z,701.69
2022-09-28T00:17:35.375Z,701.60
2022-09-28T00:17:45.376Z,701.50
2022-09-28T00:17:55.378Z,701.47
2022-09-28T00:18:05.381Z,701.55
2022-09-28T00:18:15.382Z,701.62
2022-09-28T00:18:25.380Z,701.45
2022-09-28T00:18:35.380Z,701.45
2022-09-28T00:18:45.385Z,701.52
2022-09-28T00:18:55.382Z,701.57
2022-09-28T00:19:05.384Z,701.60
2022-09-28T00:19:15.504Z,701.62
2022-09-28T00:19:25.387Z,701.63
2022-09-28T00:19:35.385Z,701.56
2022-09-28T00:19:45.387Z,701.52
2022-09-28T00:19:55.387Z,701.51
2022-09-28T00:20:05.388Z,701.55
2022-09-28T00:20:15.388Z,701.55
2022-09-28T00:20:25.376Z,701.58
2022-09-28T00:20:35.375Z,701.62
2022-09-28T00:20:45.422Z,701.60
2022-09-28T00:20:55.391Z,701.79
2022-09-28T00:21:05.391Z,701.90
2022-09-28T00:21:15.392Z,701.87
2022-09-28T00:21:25.394Z,701.87
2022-09-28T00:21:35.394Z,701.85
2022-09-28T00:21:45.394Z,701.81
2022-09-28T00:21:55.396Z,701.94
2022-09-28T00:22:05.395Z,701.96
2022-09-28T00:22:15.396Z,701.97
2022-09-28T00:22:25.397Z,701.94
2022-09-28T00:22:35.397Z,702.01
2022-09-28T00:22:45.403Z,701.96
2022-09-28T00:22:55.406Z,702.09
2022-09-28T00:23:05.406Z,702.18
2022-09-28T00:23:15.399Z,702.20
2022-09-28T00:23:25.398Z,702.27
2022-09-28T00:23:35.399Z,702.26
2022-09-28T00:23:45.402Z,702.37
2022-09-28T00:23:55.400Z,702.23
2022-09-28T00:24:05.400Z,702.26
2022-09-28T00:24:15.443Z,702.40
2022-09-28T00:24:27.787Z,702.45
2022-09-28T00:24:35.403Z,702.57
2022-09-28T00:24:45.404Z,702.71
2022-09-28T00:24:55.402Z,702.72
2022-09-28T00:25:05.404Z,702.68
2022-09-28T00:25:15.430Z,702.77
2022-09-28T00:25:25.405Z,702.71
2022-09-28T00:25:35.407Z,702.82
2022-09-28T00:25:45.408Z,702.85
2022-09-28T00:25:55.411Z,702.83
2022-09-28T00:26:05.395Z,702.82
2022-09-28T00:26:15.408Z,702.81
2022-09-28T00:26:25.410Z,702.80
2022-09-28T00:26:35.410Z,702.80
2022-09-28T00:26:45.412Z,702.72
2022-09-28T00:26:55.423Z,702.74
2022-09-28T00:27:05.398Z,702.82
2022-09-28T00:27:15.413Z,702.88
2022-09-28T00:27:25.416Z,702.96
2022-09-28T00:27:35.425Z,702.91
2022-09-28T00:27:45.414Z,702.84
2022-09-28T00:27:55.416Z,702.82
2022-09-28T00:28:05.420Z,702.89
2022-09-28T00:28:15.419Z,703.02
2022-09-28T00:28:25.419Z,703.03
2022-09-28T00:28:35.421Z,702.98
2022-09-28T00:28:45.421Z,703.02
2022-09-28T00:28:55.420Z,703.02
2022-09-28T00:29:05.423Z,703.01
2022-09-28T00:29:15.482Z,703.03
2022-09-28T00:29:25.409Z,703.03
2022-09-28T00:29:35.423Z,703.04
2022-09-28T00:29:45.428Z,703.01
2022-09-28T00:29:55.425Z,702.94
2022-09-28T00:30:05.427Z,702.93
2022-09-28T00:30:15.426Z,702.93
2022-09-28T00:30:25.429Z,703.01
2022-09-28T00:30:35.415Z,703.03
2022-09-28T00:30:45.430Z,703.04
2022-09-28T00:30:55.418Z,703.01
2022-09-28T00:31:05.464Z,703.03
2022-09-28T00:31:15.524Z,703.12
2022-09-28T00:31:25.466Z,703.12
2022-09-28T00:31:35.526Z,703.20
2022-09-28T00:31:45.538Z,703.18
2022-09-28T00:31:55.510Z,703.18
2022-09-28T00:32:05.440Z,703.18
2022-09-28T00:32:15.432Z,703.17
2022-09-28T00:32:25.418Z,703.18
2022-09-28T00:32:35.433Z,703.25
2022-09-28T00:32:45.434Z,703.30
2022-09-28T00:32:55.437Z,703.43
2022-09-28T00:33:05.438Z,703.42
2022-09-28T00:33:15.440Z,703.39
2022-09-28T00:33:25.441Z,703.43
2022-09-28T00:33:35.443Z,703.46
2022-09-28T00:33:45.440Z,703.45
2022-09-28T00:33:55.439Z,703.50
2022-09-28T00:34:05.443Z,703.53
2022-09-28T00:34:15.443Z,703.56
2022-09-28T00:34:25.452Z,703.62
2022-09-28T00:34:35.448Z,703.69
2022-09-28T00:34:45.447Z,703.58
2022-09-28T00:34:55.447Z,703.57
2022-09-28T00:35:05.447Z,703.62
2022-09-28T00:35:15.450Z,703.65
2022-09-28T00:35:25.451Z,703.62
2022-09-28T00:35:35.453Z,703.67
2022-09-28T00:35:45.473Z,703.65
2022-09-28T00:35:55.451Z,703.71
2022-09-28T00:36:05.451Z,703.73
2022-09-28T00:36:15.452Z,703.79
2022-09-28T00:36:25.456Z,703.77
2022-09-28T00:36:35.458Z,703.77
2022-09-28T00:36:45.458Z,703.79
2022-09-28T00:36:55.459Z,703.84
2022-09-28T00:37:05.462Z,703.83
2022-09-28T00:37:15.467Z,703.85
2022-09-28T00:37:25.460Z,703.90
2022-09-28T00:37:35.462Z,704.04
2022-09-28T00:37:45.462Z,703.99
2022-09-28T00:37:55.463Z,704.06
2022-09-28T00:38:05.465Z,704.12
2022-09-28T00:38:15.461Z,704.12
2022-09-28T00:38:25.465Z,704.15
2022-09-28T00:38:35.465Z,704.34
2022-09-28T00:38:45.468Z,704.40
2022-09-28T00:38:55.467Z,704.33
2022-09-28T00:39:05.471Z,704.38
2022-09-28T00:39:15.559Z,704.52
2022-09-28T00:39:25.472Z,704.54
2022-09-28T00:39:35.469Z,704.60
2022-09-28T00:39:45.472Z,704.56
2022-09-28T00:39:55.472Z,704.52
2022-09-28T00:40:05.480Z,704.47
2022-09-28T00:40:15.544Z,704.51
2022-09-28T00:40:25.514Z,704.45
2022-09-28T00:40:35.528Z,704.41
2022-09-28T00:40:45.533Z,704.43
2022-09-28T00:40:55.534Z,704.48
2022-09-28T00:41:05.477Z,704.59
2022-09-28T00:41:15.480Z,704.94
2022-09-28T00:41:25.479Z,704.98
2022-09-28T00:41:35.483Z,705.05
2022-09-28T00:41:45.479Z,705.10
2022-09-28T00:41:55.481Z,704.95
2022-09-28T00:42:05.482Z,704.86
2022-09-28T00:42:15.485Z,704.90
2022-09-28T00:42:25.483Z,705.07
2022-09-28T00:42:35.500Z,705.12
2022-09-28T00:42:45.484Z,705.08
2022-09-28T00:42:55.485Z,705.17
2022-09-28T00:43:05.485Z,705.19
2022-09-28T00:43:15.486Z,705.23
2022-09-28T00:43:25.488Z,705.21
2022-09-28T00:43:35.491Z,705.19
2022-09-28T00:43:45.487Z,705.22
2022-09-28T00:43:55.491Z,705.28
2022-09-28T00:44:05.488Z,705.28
2022-09-28T00:44:15.489Z,705.27
2022-09-28T00:44:25.490Z,705.23
2022-09-28T00:44:35.492Z,705.33
2022-09-28T00:44:45.493Z,705.37
2022-09-28T00:44:55.490Z,705.36
2022-09-28T00:45:05.492Z,705.51
2022-09-28T00:45:15.512Z,705.54
2022-09-28T00:45:25.558Z,705.51
2022-09-28T00:45:35.564Z,705.47
2022-09-28T00:45:45.538Z,705.49
2022-09-28T00:45:55.520Z,705.52
2022-09-28T00:46:05.525Z,705.51
2022-09-28T00:46:15.755Z,705.51
2022-09-28T00:46:25.496Z,705.61
2022-09-28T00:46:35.503Z,705.63
2022-09-28T00:46:45.497Z,705.57
2022-09-28T00:46:55.521Z,705.63
2022-09-28T00:47:05.500Z,705.65
2022-09-28T00:47:15.500Z,705.72
2022-09-28T00:47:25.500Z,705.72
2022-09-28T00:47:35.504Z,705.72
2022-09-28T00:47:45.504Z,705.84
2022-09-28T00:47:55.501Z,705.83
2022-09-28T00:48:05.503Z,705.77
2022-09-28T00:48:15.506Z,705.76
2022-09-28T00:48:25.504Z,705.82
2022-09-28T00:48:35.505Z,705.83
2022-09-28T00:48:45.507Z,705.79
2022-09-28T00:48:55.512Z,705.84
2022-09-28T00:49:05.515Z,706.02
2022-09-28T00:49:15.596Z,706.04
2022-09-28T00:49:25.510Z,705.90
2022-09-28T00:49:35.510Z,705.95
2022-09-28T00:49:45.514Z,705.98
2022-09-28T00:49:55.514Z,705.97
2022-09-28T00:50:05.513Z,706.09
2022-09-28T00:50:15.513Z,706.05
2022-09-28T00:50:25.514Z,706.07
2022-09-28T00:50:35.515Z,706.10
2022-09-28T00:50:45.514Z,706.14
2022-09-28T00:50:55.518Z,706.18
2022-09-28T00:51:05.515Z,706.16
2022-09-28T00:51:15.516Z,706.22
2022-09-28T00:51:25.519Z,706.25
2022-09-28T00:51:35.521Z,706.26
2022-09-28T00:51:45.521Z,706.32
2022-09-28T00:51:55.527Z,706.38
2022-09-28T00:52:05.520Z,706.35
2022-09-28T00:52:15.522Z,706.37
2022-09-28T00:52:25.526Z,706.35
2022-09-28T00:52:35.523Z,706.32
2022-09-28T00:52:45.525Z,706.25
2022-09-28T00:52:55.537Z,706.23
2022-09-28T00:53:05.526Z,706.32
2022-09-28T00:53:15.526Z,706.38
2022-09-28T00:53:25.524Z,706.44
2022-09-28T00:53:35.529Z,706.47
2022-09-28T00:53:45.528Z,706.31
2022-09-28T00:53:55.531Z,706.33
2022-09-28T00:54:05.533Z,706.40
2022-09-28T00:54:15.530Z,706.43
2022-09-28T00:54:25.516Z,706.44
2022-09-28T00:54:35.532Z,706.41
2022-09-28T00:54:45.535Z,706.36
2022-09-28T00:54:55.567Z,706.37
2022-09-28T00:55:05.535Z,706.41
2022-09-28T00:55:15.536Z,706.41
2022-09-28T00:55:25.536Z,706.37
2022-09-28T00:55:35.537Z,706.41
2022-09-28T00:55:45.539Z,706.41
2022-09-28T00:55:55.554Z,706.47
2022-09-28T00:56:05.537Z,706.54
2022-09-28T00:56:15.539Z,706.50
2022-09-28T00:56:25.543Z,706.48
2022-09-28T00:56:35.541Z,706.47
2022-09-28T00:56:45.543Z,706.54
2022-09-28T00:56:55.545Z,706.46
2022-09-28T00:57:05.548Z,706.52
2022-09-28T00:57:15.548Z,706.57
2022-09-28T00:57:25.549Z,706.78
2022-09-28T00:57:35.546Z,706.67
2022-09-28T00:57:45.547Z,706.86
2022-09-28T00:57:55.556Z,706.81
2022-09-28T00:58:05.548Z,706.86
2022-09-28T00:58:15.549Z,706.84
2022-09-28T00:58:25.584Z,706.88
2022-09-28T00:58:35.556Z,706.92
2022-09-28T00:58:45.557Z,706.92
2022-09-28T00:58:55.575Z,706.97
2022-09-28T00:59:05.556Z,707.02
2022-09-28T00:59:15.557Z,707.11
2022-09-28T00:59:25.562Z,707.16
2022-09-28T00:59:35.563Z,707.17
2022-09-28T00:59:45.579Z,707.20
2022-09-28T00:59:55.570Z,707.21
2022-09-28T01:00:05.567Z,707.20
2022-09-28T01:00:15.562Z,707.35
2022-09-28T01:00:25.576Z,707.36
2022-09-28T01:00:35.607Z,707.36
2022-09-28T01:00:45.591Z,707.41
2022-09-28T01:00:55.615Z,707.40
2022-09-28T01:01:05.607Z,707.39
2022-09-28T01:01:15.620Z,707.50
2022-09-28T01:01:25.621Z,707.58
2022-09-28T01:01:35.569Z,707.69
2022-09-28T01:01:45.620Z,707.68
2022-09-28T01:01:55.592Z,707.59
2022-09-28T01:02:05.637Z,707.52
2022-09-28T01:02:15.610Z,707.64
2022-09-28T01:02:25.642Z,707.68
2022-09-28T01:02:35.576Z,707.64
2022-09-28T01:02:45.578Z,707.63
2022-09-28T01:02:55.575Z,707.62
2022-09-28T01:03:05.577Z,707.55
2022-09-28T01:03:15.579Z,707.59
2022-09-28T01:03:25.577Z,707.63
2022-09-28T01:03:35.577Z,707.62
2022-09-28T01:03:45.598Z,707.76
2022-09-28T01:03:55.581Z,707.74
2022-09-28T01:04:05.579Z,707.77
2022-09-28T01:04:15.584Z,707.76
2022-09-28T01:04:29.271Z,707.89
2022-09-28T01:04:35.586Z,707.86
2022-09-28T01:04:45.617Z,707.85
2022-09-28T01:04:55.593Z,707.90
2022-09-28T01:05:05.588Z,707.92
2022-09-28T01:05:15.590Z,707.84
2022-09-28T01:05:25.589Z,707.89
2022-09-28T01:05:35.590Z,707.88
2022-09-28T01:05:45.591Z,707.89
2022-09-28T01:05:55.614Z,707.80
2022-09-28T01:06:05.593Z,707.84
2022-09-28T01:06:15.600Z,707.93
2022-09-28T01:06:25.597Z,707.85
2022-09-28T01:06:35.583Z,707.89
2022-09-28T01:06:45.597Z,707.83
2022-09-28T01:06:55.596Z,707.87
2022-09-28T01:07:05.602Z,707.79
2022-09-28T01:07:15.600Z,707.81
2022-09-28T01:07:25.600Z,707.86
2022-09-28T01:07:35.610Z,707.89
2022-09-28T01:07:45.586Z,707.88
2022-09-28T01:07:55.604Z,707.88
2022-09-28T01:08:05.601Z,707.91
2022-09-28T01:08:15.608Z,707.94
2022-09-28T01:08:25.606Z,708.00
2022-09-28T01:08:35.604Z,708.15
2022-09-28T01:08:45.620Z,708.13
2022-09-28T01:08:55.607Z,708.10
2022-09-28T01:09:05.607Z,708.08
2022-09-28T01:09:15.621Z,708.15
2022-09-28T01:09:25.610Z,708.06
2022-09-28T01:09:35.611Z,708.07
2022-09-28T01:09:45.609Z,708.12
2022-09-28T01:09:55.615Z,708.14
2022-09-28T01:10:05.611Z,708.07
2022-09-28T01:10:15.612Z,708.09
2022-09-28T01:10:25.613Z,708.07
2022-09-28T01:10:35.616Z,708.05
2022-09-28T01:10:45.616Z,708.21
2022-09-28T01:10:55.616Z,708.14
2022-09-28T01:11:05.616Z,708.16
2022-09-28T01:11:15.620Z,708.18
2022-09-28T01:11:25.618Z,708.14
2022-09-28T01:11:35.619Z,708.12
2022-09-28T01:11:45.621Z,708.18
2022-09-28T01:11:55.622Z,708.23
2022-09-28T01:12:05.622Z,708.26
2022-09-28T01:12:15.624Z,708.29
2022-09-28T01:12:25.622Z,708.35
2022-09-28T01:12:35.623Z,708.30
2022-09-28T01:12:45.628Z,708.30
2022-09-28T01:12:55.630Z,708.27
2022-09-28T01:13:05.611Z,708.18
2022-09-28T01:13:15.630Z,708.20
2022-09-28T01:13:25.629Z,708.17
2022-09-28T01:13:35.630Z,708.13
2022-09-28T01:13:45.631Z,708.25
2022-09-28T01:13:55.619Z,708.07
2022-09-28T01:14:05.631Z,708.18
2022-09-28T01:14:15.654Z,708.30
2022-09-28T01:14:25.645Z,708.39
2022-09-28T01:14:35.635Z,708.40
2022-09-28T01:14:45.635Z,708.41
2022-09-28T01:14:55.638Z,708.43
2022-09-28T01:15:05.637Z,708.43
2022-09-28T01:15:15.651Z,708.46
2022-09-28T01:15:25.635Z,708.59
2022-09-28T01:15:35.639Z,708.57
2022-09-28T01:15:45.638Z,708.62
2022-09-28T01:15:55.678Z,708.75
2022-09-28T01:16:05.710Z,708.82
2022-09-28T01:16:15.701Z,708.88
2022-09-28T01:16:25.674Z,708.94
2022-09-28T01:16:35.691Z,708.83
2022-09-28T01:16:45.678Z,708.86
2022-09-28T01:16:55.645Z,708.88
2022-09-28T01:17:05.644Z,708.85
2022-09-28T01:17:15.644Z,708.84
2022-09-28T01:17:25.645Z,708.91
2022-09-28T01:17:35.647Z,708.97
2022-09-28T01:17:45.648Z,709.00
2022-09-28T01:17:55.651Z,709.08
2022-09-28T01:18:05.650Z,708.96
2022-09-28T01:18:15.650Z,708.95
2022-09-28T01:18:25.650Z,708.84
2022-09-28T01:18:35.649Z,709.06
2022-09-28T01:18:45.655Z,709.13
2022-09-28T01:18:55.652Z,708.95
2022-09-28T01:19:05.659Z,709.03
2022-09-28T01:19:15.653Z,709.00
2022-09-28T01:19:25.653Z,709.17
2022-09-28T01:19:35.658Z,709.19
2022-09-28T01:19:45.657Z,709.19
2022-09-28T01:19:55.659Z,709.17
2022-09-28T01:20:05.660Z,709.26
2022-09-28T01:20:15.662Z,709.14
2022-09-28T01:20:25.658Z,709.23
2022-09-28T01:20:35.658Z,709.24
2022-09-28T01:20:45.658Z,709.13
2022-09-28T01:20:55.658Z,709.22
2022-09-28T01:21:05.659Z,709.31
2022-09-28T01:21:15.660Z,709.28
2022-09-28T01:21:25.662Z,709.35
2022-09-28T01:21:35.662Z,709.39
2022-09-28T01:21:45.662Z,709.38
2022-09-28T01:21:55.664Z,709.33
2022-09-28T01:22:05.664Z,709.34
2022-09-28T01:22:15.666Z,709.46
2022-09-28T01:22:25.667Z,709.46
2022-09-28T01:22:35.670Z,709.45
2022-09-28T01:22:45.666Z,709.50
2022-09-28T01:22:55.671Z,709.48
2022-09-28T01:23:05.674Z,709.51
2022-09-28T01:23:15.670Z,709.52
2022-09-28T01:23:25.673Z,709.51
2022-09-28T01:23:35.673Z,709.59
2022-09-28T01:23:45.676Z,709.58
2022-09-28T01:23:55.674Z,709.59
2022-09-28T01:24:05.659Z,709.59
2022-09-28T01:24:15.674Z,709.57
2022-09-28T01:24:25.675Z,709.63
2022-09-28T01:24:35.676Z,709.65
2022-09-28T01:24:45.677Z,709.65
2022-09-28T01:24:55.681Z,709.69
2022-09-28T01:25:05.679Z,709.71
2022-09-28T01:25:15.680Z,709.73
2022-09-28T01:25:25.688Z,709.75
2022-09-28T01:25:35.680Z,709.81
2022-09-28T01:25:45.682Z,709.81
2022-09-28T01:25:55.684Z,709.84
2022-09-28T01:26:05.684Z,709.86
2022-09-28T01:26:15.693Z,709.91
2022-09-28T01:26:25.696Z,709.94
2022-09-28T01:26:35.689Z,709.93
2022-09-28T01:26:45.688Z,709.91
2022-09-28T01:26:55.689Z,710.00
2022-09-28T01:27:05.691Z,710.03
2022-09-28T01:27:15.691Z,710.08
2022-09-28T01:27:25.688Z,710.09
2022-09-28T01:27:35.689Z,710.05
2022-09-28T01:27:45.695Z,710.01
2022-09-28T01:27:55.692Z,710.02
2022-09-28T01:28:05.693Z,710.12
2022-09-28T01:28:15.692Z,710.11
2022-09-28T01:28:25.720Z,710.11
2022-09-28T01:28:35.696Z,710.09
2022-09-28T01:28:45.694Z,710.16
2022-09-28T01:28:55.705Z,710.19
2022-09-28T01:29:05.701Z,710.13
2022-09-28T01:29:15.699Z,710.10
2022-09-28T01:29:25.710Z,710.07
2022-09-28T01:29:35.698Z,710.01
2022-09-28T01:29:45.702Z,709.96
2022-09-28T01:29:55.705Z,709.96
2022-09-28T01:30:05.706Z,710.01
2022-09-28T01:30:15.701Z,710.03
2022-09-28T01:30:25.709Z,710.10
2022-09-28T01:30:35.703Z,709.98
2022-09-28T01:30:45.705Z,710.00
2022-09-28T01:30:55.716Z,710.09
2022-09-28T01:31:05.724Z,710.13
2022-09-28T01:31:15.739Z,710.23
2022-09-28T01:31:25.747Z,710.11
2022-09-28T01:31:35.765Z,710.11
2022-09-28T01:31:45.745Z,710.07
2022-09-28T01:31:55.759Z,710.15
2022-09-28T01:32:05.713Z,710.07
2022-09-28T01:32:15.712Z,710.09
2022-09-28T01:32:25.714Z,710.11
2022-09-28T01:32:35.715Z,710.10
2022-09-28T01:32:45.718Z,710.17
2022-09-28T01:32:55.717Z,710.18
2022-09-28T01:33:05.717Z,710.18
2022-09-28T01:33:15.704Z,710.17
2022-09-28T01:33:25.719Z,710.28
2022-09-28T01:33:35.721Z,710.34
2022-09-28T01:33:45.720Z,710.31
2022-09-28T01:33:55.720Z,710.28
2022-09-28T01:34:05.725Z,710.39
2022-09-28T01:34:15.723Z,710.34
2022-09-28T01:34:25.723Z,710.31
2022-09-28T01:34:35.727Z,710.36
2022-09-28T01:34:45.724Z,710.40
2022-09-28T01:34:55.730Z,710.46
2022-09-28T01:35:05.728Z,710.50
2022-09-28T01:35:15.732Z,710.59
2022-09-28T01:35:25.730Z,710.58
2022-09-28T01:35:35.731Z,710.57
2022-09-28T01:35:45.731Z,710.58
2022-09-28T01:35:55.761Z,710.59
2022-09-28T01:36:05.737Z,710.75
2022-09-28T01:36:15.737Z,710.78
2022-09-28T01:36:25.737Z,710.76
2022-09-28T01:36:35.722Z,710.78
2022-09-28T01:36:45.724Z,710.78
2022-09-28T01:36:55.739Z,710.83
2022-09-28T01:37:05.743Z,710.91
2022-09-28T01:37:15.742Z,710.87
2022-09-28T01:37:25.743Z,710.85
2022-09-28T01:37:35.746Z,710.82
2022-09-28T01:37:45.747Z,710.84
2022-09-28T01:37:55.747Z,710.86
2022-09-28T01:38:05.736Z,710.82
2022-09-28T01:38:15.749Z,710.76
2022-09-28T01:38:25.752Z,710.85
2022-09-28T01:38:35.755Z,710.79
2022-09-28T01:38:45.750Z,710.76
2022-09-28T01:38:55.754Z,710.72
2022-09-28T01:39:05.755Z,710.70
2022-09-28T01:39:15.817Z,710.71
2022-09-28T01:39:25.756Z,710.63
2022-09-28T01:39:35.790Z,710.59
2022-09-28T01:39:45.757Z,710.68
2022-09-28T01:39:55.760Z,710.70
2022-09-28T01:40:05.760Z,710.68
2022-09-28T01:40:15.803Z,710.65
2022-09-28T01:40:25.823Z,710.63
2022-09-28T01:40:35.811Z,710.66
2022-09-28T01:40:45.796Z,710.60
2022-09-28T01:40:55.807Z,710.64
2022-09-28T01:41:05.765Z,710.69
2022-09-28T01:41:15.764Z,710.63
2022-09-28T01:41:25.764Z,710.59
2022-09-28T01:41:35.752Z,710.60
2022-09-28T01:41:45.768Z,710.57
2022-09-28T01:41:55.771Z,710.53
2022-09-28T01:42:05.772Z,710.52
2022-09-28T01:42:15.768Z,710.56
2022-09-28T01:42:25.770Z,710.58
2022-09-28T01:42:35.771Z,710.63
2022-09-28T01:42:45.755Z,710.56
2022-09-28T01:42:55.771Z,710.61
2022-09-28T01:43:05.784Z,710.57
2022-09-28T01:43:15.771Z,710.56
2022-09-28T01:43:25.772Z,710.58
2022-09-28T01:43:35.771Z,710.50
2022-09-28T01:43:45.773Z,710.48
2022-09-28T01:43:55.761Z,710.50
2022-09-28T01:44:05.776Z,710.49
2022-09-28T01:44:15.777Z,710.49
2022-09-28T01:44:25.779Z,710.46
2022-09-28T01:44:35.778Z,710.43
2022-09-28T01:44:45.764Z,710.61
2022-09-28T01:44:55.785Z,710.60
2022-09-28T01:45:05.784Z,710.64
2022-09-28T01:45:15.781Z,710.69
2022-09-28T01:45:25.785Z,710.72
2022-09-28T01:45:35.834Z,710.68
2022-09-28T01:45:45.856Z,710.75
2022-09-28T01:45:55.810Z,710.80
2022-09-28T01:46:05.844Z,710.82
2022-09-28T01:46:15.801Z,710.80
2022-09-28T01:46:25.788Z,710.77
2022-09-28T01:46:35.788Z,710.82
2022-09-28T01:46:45.788Z,710.83
2022-09-28T01:46:55.786Z,710.90
2022-09-28T01:47:05.790Z,710.99
2022-09-28T01:47:15.791Z,711.01
2022-09-28T01:47:25.790Z,711.03
2022-09-28T01:47:35.792Z,711.04
2022-09-28T01:47:45.792Z,711.06
2022-09-28T01:47:55.793Z,711.08
2022-09-28T01:48:05.794Z,711.07
2022-09-28T01:48:15.794Z,711.07
2022-09-28T01:48:25.798Z,711.13
2022-09-28T01:48:35.796Z,711.17
2022-09-28T01:48:45.800Z,711.18
2022-09-28T01:48:55.801Z,711.21
2022-09-28T01:49:05.804Z,711.27
2022-09-28T01:49:15.903Z,711.27
2022-09-28T01:49:25.802Z,711.31
2022-09-28T01:49:35.804Z,711.34
2022-09-28T01:49:45.806Z,711.35
2022-09-28T01:49:55.809Z,711.39
2022-09-28T01:50:05.805Z,711.47
2022-09-28T01:50:15.807Z,711.52
2022-09-28T01:50:25.810Z,711.54
2022-09-28T01:50:35.808Z,711.60
2022-09-28T01:50:45.811Z,711.62
2022-09-28T01:50:55.818Z,711.66
2022-09-28T01:51:05.812Z,711.73
2022-09-28T01:51:15.812Z,711.74
2022-09-28T01:51:25.813Z,711.70
2022-09-28T01:51:35.813Z,711.77
2022-09-28T01:51:45.811Z,711.76
2022-09-28T01:51:55.815Z,711.80
2022-09-28T01:52:05.816Z,711.83
2022-09-28T01:52:15.817Z,711.82
2022-09-28T01:52:25.821Z,711.84
2022-09-28T01:52:35.819Z,711.85
2022-09-28T01:52:45.825Z,711.86
2022-09-28T01:52:55.806Z,711.85
2022-09-28T01:53:05.824Z,711.81
2022-09-28T01:53:15.824Z,711.85
2022-09-28T01:53:25.866Z,711.87
2022-09-28T01:53:35.840Z,711.88
2022-09-28T01:53:45.829Z,711.86
2022-09-28T01:53:55.829Z,711.86
2022-09-28T01:54:05.829Z,711.90
2022-09-28T01:54:15.829Z,711.91
2022-09-28T01:54:25.829Z,711.88
2022-09-28T01:54:35.831Z,711.96
2022-09-28T01:54:45.832Z,711.97
2022-09-28T01:54:55.838Z,711.97
2022-09-28T01:55:05.830Z,711.97
2022-09-28T01:55:15.832Z,711.93
2022-09-28T01:55:25.837Z,711.88
2022-09-28T01:55:35.835Z,711.83
2022-09-28T01:55:45.836Z,711.80
2022-09-28T01:55:55.836Z,711.77
2022-09-28T01:56:05.841Z,711.68
2022-09-28T01:56:15.838Z,711.67
2022-09-28T01:56:25.836Z,711.64
2022-09-28T01:56:35.838Z,711.66
2022-09-28T01:56:45.842Z,711.62
2022-09-28T01:56:55.843Z,711.66
2022-09-28T01:57:05.841Z,711.67
2022-09-28T01:57:15.833Z,711.70
2022-09-28T01:57:25.845Z,711.73
2022-09-28T01:57:35.845Z,711.69
2022-09-28T01:57:45.848Z,711.69
2022-09-28T01:57:55.847Z,711.78
2022-09-28T01:58:05.850Z,711.97
2022-09-28T01:58:15.850Z,712.06
2022-09-28T01:58:25.863Z,712.05
2022-09-28T01:58:35.853Z,711.99
2022-09-28T01:58:45.853Z,712.04
2022-09-28T01:58:55.854Z,711.99
2022-09-28T01:59:05.863Z,712.06
2022-09-28T01:59:15.963Z,712.18
2022-09-28T01:59:25.858Z,712.15
2022-09-28T01:59:35.858Z,712.23
2022-09-28T01:59:45.859Z,712.20
2022-09-28T01:59:55.873Z,712.24
2022-09-28T02:00:05.860Z,712.35
2022-09-28T02:00:15.865Z,712.31
2022-09-28T02:00:26.079Z,712.30
2022-09-28T02:00:35.915Z,712.33
2022-09-28T02:00:45.876Z,712.25
2022-09-28T02:00:55.952Z,712.28
2022-09-28T02:01:05.933Z,712.28
2022-09-28T02:01:15.915Z,712.32
2022-09-28T02:01:25.868Z,712.30
2022-09-28T02:01:35.869Z,712.30
2022-09-28T02:01:45.913Z,712.25
2022-09-28T02:01:55.899Z,712.26
2022-09-28T02:02:05.926Z,712.21
2022-09-28T02:02:15.992Z,712.24
2022-09-28T02:02:25.918Z,712.34
2022-09-28T02:02:35.878Z,712.35
2022-09-28T02:02:45.879Z,712.36
2022-09-28T02:02:55.869Z,712.28
2022-09-28T02:03:05.880Z,712.35
2022-09-28T02:03:15.880Z,712.40
2022-09-28T02:03:25.884Z,712.46
2022-09-28T02:03:35.879Z,712.41
2022-09-28T02:03:45.882Z,712.37
2022-09-28T02:03:55.882Z,712.45
2022-09-28T02:04:05.884Z,712.43
2022-09-28T02:04:15.884Z,712.52
2022-09-28T02:04:25.886Z,712.57
2022-09-28T02:04:35.885Z,712.58
2022-09-28T02:04:45.886Z,712.64